createdAt,value
2019-04-06T00:01:06.770Z,1.79
2019-04-06T00:03:38.023Z,1.78
2019-04-06T00:06:08.234Z,1.79
2019-04-06T00:08:38.838Z,1.66
2019-04-06T00:11:09.375Z,1.55
2019-04-06T00:13:39.787Z,1.50
2019-04-06T00:16:10.042Z,1.47
2019-04-06T00:18:40.569Z,1.43
2019-04-06T00:21:10.796Z,1.34
2019-04-06T00:23:41.400Z,1.33
2019-04-06T00:26:11.726Z,1.37
2019-04-06T00:28:42.018Z,1.35
2019-04-06T00:31:25.579Z,1.27
2019-04-06T00:33:55.776Z,1.22
2019-04-06T00:36:26.019Z,1.17
2019-04-06T00:38:56.675Z,1.18
2019-04-06T00:41:27.058Z,1.20
2019-04-06T00:43:58.749Z,1.17
2019-04-06T00:46:28.975Z,1.23
2019-04-06T00:48:59.602Z,1.27
2019-04-06T00:51:30.132Z,1.23
2019-04-06T00:54:00.383Z,1.23
2019-04-06T00:56:32.218Z,1.16
2019-04-06T00:59:02.529Z,1.14
2019-04-06T01:01:32.743Z,1.11
2019-04-06T01:04:03.406Z,1.15
2019-04-06T01:06:33.950Z,1.11
2019-04-06T01:09:05.787Z,1.04
2019-04-06T01:11:36.318Z,1.17
2019-04-06T01:14:06.538Z,1.17
2019-04-06T01:16:36.804Z,1.28
2019-04-06T01:19:07.087Z,1.35
2019-04-06T01:21:37.478Z,1.24
2019-04-06T01:24:08.047Z,1.20
2019-04-06T01:26:38.295Z,1.11
2019-04-06T01:29:08.594Z,1.03
2019-04-06T01:31:38.991Z,1.05
2019-04-06T01:34:09.188Z,1.00
2019-04-06T01:36:39.512Z,1.03
2019-04-06T01:39:09.825Z,1.09
2019-04-06T01:41:40.418Z,1.02
2019-04-06T01:44:10.626Z,1.04
2019-04-06T01:46:41.060Z,1.13
2019-04-06T01:49:12.705Z,1.06
2019-04-06T01:51:42.975Z,1.02
2019-04-06T01:54:13.255Z,1.13
2019-04-06T01:56:43.629Z,1.12
2019-04-06T01:59:13.923Z,1.15
2019-04-06T02:02:03.235Z,1.11
2019-04-06T02:04:33.722Z,0.98
2019-04-06T02:07:04.043Z,1.15
2019-04-06T02:09:34.252Z,1.14
2019-04-06T02:12:04.519Z,1.25
2019-04-06T02:14:34.815Z,1.28
2019-04-06T02:19:36.820Z,1.26
2019-04-06T02:22:07.218Z,1.26
2019-04-06T02:24:37.446Z,1.26
2019-04-06T02:27:07.638Z,1.36
2019-04-06T02:29:37.964Z,1.44
2019-04-06T02:32:36.509Z,1.63
2019-04-06T02:35:38.363Z,1.57
2019-04-06T02:38:43.205Z,1.51
2019-04-06T02:41:38.704Z,1.54
2019-04-06T02:44:09.155Z,1.50
2019-04-06T02:46:39.381Z,1.52
2019-04-06T02:49:09.610Z,1.52
2019-04-06T02:51:39.858Z,1.44
2019-04-06T02:54:10.097Z,1.44
2019-04-06T02:56:46.141Z,1.50
2019-04-06T02:59:12.587Z,1.45
2019-04-06T03:01:42.846Z,1.45
2019-04-06T03:04:13.765Z,1.47
2019-04-06T03:06:44.060Z,1.61
2019-04-06T03:09:14.292Z,1.61
2019-04-06T03:11:44.767Z,1.55
2019-04-06T03:14:16.092Z,1.46
2019-04-06T03:16:46.616Z,1.33
2019-04-06T03:19:16.811Z,1.30
2019-04-06T03:21:47.469Z,1.29
2019-04-06T03:24:17.797Z,1.25
2019-04-06T03:26:59.914Z,1.30
2019-04-06T03:29:20.035Z,1.38
2019-04-06T03:31:50.168Z,1.33
2019-04-06T03:34:21.983Z,1.33
2019-04-06T03:36:52.342Z,1.30
2019-04-06T03:39:23.011Z,1.31
2019-04-06T03:41:53.283Z,1.29
2019-04-06T03:44:23.554Z,1.24
2019-04-06T03:46:53.827Z,1.20
2019-04-06T03:49:24.187Z,1.19
2019-04-06T03:51:54.363Z,1.29
2019-04-06T03:54:24.654Z,1.36
2019-04-06T03:56:54.938Z,1.32
2019-04-06T03:59:25.648Z,1.23
2019-04-06T04:01:56.303Z,1.12
2019-04-06T04:04:26.574Z,1.19
2019-04-06T04:06:56.876Z,1.19
2019-04-06T04:09:27.450Z,1.32
2019-04-06T04:11:58.030Z,1.23
2019-04-06T04:14:28.248Z,1.17
2019-04-06T04:16:58.504Z,1.14
2019-04-06T04:19:28.970Z,1.16
2019-04-06T04:21:59.255Z,1.13
2019-04-06T04:24:29.506Z,1.12
2019-04-06T04:26:59.712Z,1.16
2019-04-06T04:29:29.879Z,1.13
2019-04-06T04:32:00.561Z,1.07
2019-04-06T04:34:31.397Z,0.99
2019-04-06T04:37:01.606Z,0.90
2019-04-06T04:39:32.003Z,0.92
2019-04-06T04:42:02.466Z,0.79
2019-04-06T04:44:33.108Z,0.73
2019-04-06T04:47:03.997Z,0.68
2019-04-06T04:49:34.517Z,0.67
2019-04-06T04:52:04.782Z,0.76
2019-04-06T04:54:35.060Z,0.78
2019-04-06T04:57:05.275Z,0.78
2019-04-06T04:59:36.073Z,0.82
2019-04-06T05:02:06.406Z,0.79
2019-04-06T05:04:36.659Z,0.88
2019-04-06T05:07:07.290Z,0.88
2019-04-06T05:09:38.402Z,0.88
2019-04-06T05:12:08.723Z,0.85
2019-04-06T05:15:18.602Z,0.89
2019-04-06T05:17:48.880Z,0.91
2019-04-06T05:20:19.193Z,1.05
2019-04-06T05:22:49.446Z,1.12
2019-04-06T05:25:19.719Z,1.12
2019-04-06T05:27:52.398Z,1.13
2019-04-06T05:30:21.889Z,1.12
2019-04-06T05:32:52.607Z,1.19
2019-04-06T05:35:22.856Z,1.22
2019-04-06T05:37:54.135Z,1.25
2019-04-06T05:40:25.568Z,1.21
2019-04-06T05:42:56.352Z,1.21
2019-04-06T05:45:26.511Z,1.21
2019-04-06T05:47:57.302Z,1.18
2019-04-06T05:50:27.466Z,1.26
2019-04-06T05:52:57.858Z,1.35
2019-04-06T05:55:28.485Z,1.33
2019-04-06T05:58:03.892Z,1.40
2019-04-06T06:00:31.350Z,1.47
2019-04-06T06:03:01.581Z,1.48
2019-04-06T06:05:31.982Z,1.53
2019-04-06T06:08:02.389Z,1.60
2019-04-06T06:10:32.641Z,1.63
2019-04-06T06:13:02.983Z,1.64
2019-04-06T06:15:34.214Z,1.68
2019-04-06T06:18:04.889Z,1.71
2019-04-06T06:20:35.663Z,1.84
2019-04-06T06:23:05.890Z,1.97
2019-04-06T06:25:36.377Z,2.10
2019-04-06T06:28:14.629Z,2.26
2019-04-06T06:30:38.785Z,2.37
2019-04-06T06:33:12.602Z,2.48
2019-04-06T06:35:42.965Z,2.63
2019-04-06T06:38:13.945Z,2.82
2019-04-06T06:40:45.040Z,3.01
2019-04-06T06:43:16.297Z,3.22
2019-04-06T06:45:46.502Z,3.39
2019-04-06T06:48:17.023Z,3.55
2019-04-06T06:50:47.838Z,3.69
2019-04-06T06:53:18.094Z,3.85
2019-04-06T06:55:49.589Z,4.02
2019-04-06T06:58:25.191Z,4.08
2019-04-06T07:00:52.977Z,4.30
2019-04-06T07:03:23.489Z,4.40
2019-04-06T07:05:54.340Z,4.55
2019-04-06T07:08:25.148Z,4.74
2019-04-06T07:10:55.373Z,4.85
2019-04-06T07:13:25.559Z,5.02
2019-04-06T07:15:56.588Z,5.16
2019-04-06T07:18:28.026Z,5.32
2019-04-06T07:20:59.574Z,5.47
2019-04-06T07:23:30.822Z,5.60
2019-04-06T07:26:01.459Z,5.82
2019-04-06T07:28:38.623Z,6.01
2019-04-06T07:31:04.644Z,6.29
2019-04-06T07:33:35.220Z,6.52
2019-04-06T07:36:05.537Z,6.78
2019-04-06T07:38:37.835Z,6.89
2019-04-06T07:41:09.068Z,7.20
2019-04-06T07:43:40.574Z,7.57
2019-04-06T07:46:11.055Z,7.82
2019-04-06T07:48:41.314Z,8.00
2019-04-06T07:51:12.637Z,8.20
2019-04-06T07:53:43.160Z,8.53
2019-04-06T07:56:13.734Z,8.76
2019-04-06T07:58:49.530Z,8.94
2019-04-06T08:01:16.352Z,9.20
2019-04-06T08:03:46.900Z,9.50
2019-04-06T08:06:17.253Z,9.58
2019-04-06T08:08:48.462Z,9.54
2019-04-06T08:11:19.161Z,9.38
2019-04-06T08:13:49.758Z,9.45
2019-04-06T08:16:20.127Z,9.62
2019-04-06T08:18:50.678Z,9.78
2019-04-06T08:21:20.890Z,10.08
2019-04-06T08:23:51.539Z,10.22
2019-04-06T08:26:22.124Z,10.40
2019-04-06T08:29:00.299Z,10.64
2019-04-06T08:31:24.318Z,10.78
2019-04-06T08:33:54.986Z,10.87
2019-04-06T08:36:25.904Z,10.60
2019-04-06T08:38:56.691Z,10.83
2019-04-06T08:41:27.436Z,10.84
2019-04-06T08:43:58.018Z,10.84
2019-04-06T08:46:28.220Z,11.12
2019-04-06T08:48:58.435Z,11.10
2019-04-06T08:51:29.138Z,11.52
2019-04-06T08:53:59.854Z,11.40
2019-04-06T08:56:31.149Z,11.55
2019-04-06T08:59:10.738Z,11.48
2019-04-06T09:01:34.072Z,11.65
2019-04-06T09:04:04.621Z,11.80
2019-04-06T09:06:34.906Z,11.77
2019-04-06T09:09:07.429Z,12.03
2019-04-06T09:11:37.706Z,12.27
2019-04-06T09:14:09.178Z,12.29
2019-04-06T09:16:40.179Z,12.43
2019-04-06T09:19:11.146Z,12.19
2019-04-06T09:21:41.361Z,12.69
2019-04-06T09:24:11.585Z,12.68
2019-04-06T09:26:41.795Z,12.75
2019-04-06T09:29:22.414Z,12.38
2019-04-06T09:31:44.841Z,12.38
2019-04-06T09:34:15.511Z,11.99
2019-04-06T09:36:47.560Z,11.81
2019-04-06T09:39:19.157Z,12.00
2019-04-06T09:41:50.446Z,12.14
2019-04-06T09:44:32.138Z,12.45
2019-04-06T09:47:16.883Z,12.48
2019-04-06T09:50:18.787Z,13.49
2019-04-06T09:53:05.254Z,14.65
2019-04-06T09:55:54.631Z,15.38
2019-04-06T09:58:37.907Z,15.89
2019-04-06T10:01:19.774Z,16.49
2019-04-06T10:03:59.171Z,17.24
2019-04-06T10:06:48.704Z,16.93
2019-04-06T10:09:38.362Z,17.22
2019-04-06T10:12:26.275Z,17.43
2019-04-06T10:15:24.894Z,17.08
2019-04-06T10:18:13.517Z,16.19
2019-04-06T10:20:52.947Z,16.26
2019-04-06T10:23:36.512Z,16.78
2019-04-06T10:26:26.342Z,16.82
2019-04-06T10:29:18.740Z,17.19
2019-04-06T10:32:12.343Z,17.41
2019-04-06T10:35:07.679Z,16.98
2019-04-06T10:38:06.860Z,16.55
2019-04-06T10:40:54.339Z,16.87
2019-04-06T10:43:55.798Z,18.45
2019-04-06T10:46:35.603Z,18.26
2019-04-06T10:49:13.832Z,17.77
2019-04-06T10:52:01.994Z,17.11
2019-04-06T10:55:04.283Z,17.00
2019-04-06T10:57:51.020Z,17.25
2019-04-06T11:00:39.026Z,17.02
2019-04-06T11:03:31.167Z,17.63
2019-04-06T11:06:26.255Z,17.69
2019-04-06T11:09:12.672Z,18.03
2019-04-06T11:12:05.471Z,18.75
2019-04-06T11:14:55.782Z,19.42
2019-04-06T11:18:00.742Z,18.90
2019-04-06T11:20:44.886Z,18.95
2019-04-06T11:23:32.350Z,18.19
2019-04-06T11:26:20.354Z,18.35
2019-04-06T11:29:02.713Z,17.18
2019-04-06T11:31:47.174Z,17.03
2019-04-06T11:34:35.469Z,17.13
2019-04-06T11:37:37.048Z,16.47
2019-04-06T11:40:16.549Z,16.67
2019-04-06T11:43:08.798Z,16.75
2019-04-06T11:46:07.521Z,16.57
2019-04-06T11:48:59.906Z,16.33
2019-04-06T11:51:49.842Z,15.91
2019-04-06T11:54:42.190Z,16.41
2019-04-06T11:57:27.096Z,15.99
2019-04-06T12:00:26.082Z,15.63
2019-04-06T12:03:24.507Z,15.91
2019-04-06T12:06:10.258Z,16.20
2019-04-06T12:08:53.705Z,15.74
2019-04-06T12:11:37.498Z,16.02
2019-04-06T12:14:38.657Z,15.70
2019-04-06T12:17:19.131Z,16.44
2019-04-06T12:20:07.197Z,17.21
2019-04-06T12:22:59.349Z,17.21
2019-04-06T12:25:46.612Z,17.63
2019-04-06T12:28:26.568Z,18.09
2019-04-06T12:31:14.624Z,18.64
2019-04-06T12:34:10.021Z,18.93
2019-04-06T12:37:09.219Z,19.24
2019-04-06T12:39:54.608Z,20.12
2019-04-06T12:42:35.053Z,20.79
2019-04-06T12:45:30.749Z,22.07
2019-04-06T12:48:38.719Z,22.37
2019-04-06T12:51:25.738Z,22.44
2019-04-06T12:54:13.874Z,21.62
2019-04-06T12:57:06.408Z,20.80
2019-04-06T13:00:05.121Z,21.36
2019-04-06T13:02:53.014Z,22.06
2019-04-06T13:05:39.089Z,23.98
2019-04-06T13:08:41.003Z,23.70
2019-04-06T13:11:21.791Z,25.40
2019-04-06T13:14:04.586Z,23.39
2019-04-06T13:16:43.529Z,22.96
2019-04-06T13:19:42.376Z,22.29
2019-04-06T13:22:27.348Z,22.14
2019-04-06T13:25:14.333Z,20.72
2019-04-06T13:28:09.654Z,20.44
2019-04-06T13:31:13.985Z,19.63
2019-04-06T13:34:08.299Z,18.87
2019-04-06T13:36:48.740Z,18.97
2019-04-06T13:39:43.704Z,19.17
2019-04-06T13:42:36.176Z,18.77
2019-04-06T13:45:40.461Z,18.52
2019-04-06T13:48:32.338Z,18.57
2019-04-06T13:51:21.732Z,18.97
2019-04-06T13:54:17.763Z,19.63
2019-04-06T13:57:06.963Z,20.01
2019-04-06T13:59:54.448Z,20.40
2019-04-06T14:02:33.709Z,20.42
2019-04-06T14:05:26.049Z,20.28
2019-04-06T14:08:13.227Z,19.34
2019-04-06T14:10:52.222Z,18.52
2019-04-06T14:13:41.026Z,18.37
2019-04-06T14:16:19.950Z,18.50
2019-04-06T14:19:18.574Z,18.65
2019-04-06T14:22:02.043Z,19.76
2019-04-06T14:25:00.421Z,21.83
2019-04-06T14:27:51.439Z,22.23
2019-04-06T14:30:37.578Z,24.71
2019-04-06T14:33:25.895Z,27.28
2019-04-06T14:36:24.465Z,29.13
2019-04-06T14:39:02.359Z,31.14
2019-04-06T14:41:54.070Z,31.72
2019-04-06T14:44:43.235Z,33.71
2019-04-06T14:47:41.734Z,34.12
2019-04-06T14:50:31.706Z,32.97
2019-04-06T14:53:15.213Z,35.15
2019-04-06T14:56:00.387Z,32.65
2019-04-06T14:58:55.801Z,33.91
2019-04-06T15:01:57.734Z,33.73
2019-04-06T15:04:36.815Z,34.04
2019-04-06T15:07:31.762Z,34.64
2019-04-06T15:10:19.771Z,34.65
2019-04-06T15:13:15.326Z,32.90
2019-04-06T15:16:20.135Z,32.57
2019-04-06T15:19:09.396Z,33.06
2019-04-06T15:21:59.542Z,31.36
2019-04-06T15:24:48.726Z,31.55
2019-04-06T15:27:37.954Z,30.95
2019-04-06T15:30:25.890Z,28.97
2019-04-06T15:33:18.823Z,28.78
2019-04-06T15:36:06.994Z,29.60
2019-04-06T15:38:53.418Z,29.49
2019-04-06T15:41:54.757Z,27.53
2019-04-06T15:44:36.144Z,26.35
2019-04-06T15:47:25.775Z,27.41
2019-04-06T15:50:15.001Z,26.57
2019-04-06T15:53:12.906Z,24.70
2019-04-06T15:56:14.202Z,24.70
2019-04-06T15:58:54.571Z,24.45
2019-04-06T16:01:59.088Z,24.34
2019-04-06T16:04:44.612Z,23.71
2019-04-06T16:07:29.715Z,23.12
2019-04-06T16:10:18.145Z,23.29
2019-04-06T16:13:19.740Z,24.06
2019-04-06T16:16:07.618Z,23.55
2019-04-06T16:19:01.438Z,21.80
2019-04-06T16:21:49.902Z,22.73
2019-04-06T16:24:51.304Z,22.25
2019-04-06T16:27:33.661Z,21.09
2019-04-06T16:30:25.844Z,19.75
2019-04-06T16:33:14.479Z,18.72
2019-04-06T16:36:20.641Z,18.18
2019-04-06T16:39:10.488Z,17.50
2019-04-06T16:42:05.971Z,17.21
2019-04-06T16:44:58.710Z,16.97
2019-04-06T16:47:48.195Z,16.81
2019-04-06T16:50:36.477Z,17.45
2019-04-06T16:53:34.554Z,17.97
2019-04-06T16:56:19.400Z,17.62
2019-04-06T16:59:09.002Z,16.59
2019-04-06T17:02:22.986Z,16.36
2019-04-06T17:05:16.565Z,16.15
2019-04-06T17:07:52.493Z,15.72
2019-04-06T17:10:35.812Z,15.61
2019-04-06T17:13:22.798Z,15.43
2019-04-06T17:16:04.419Z,15.30
2019-04-06T17:18:52.304Z,15.15
2019-04-06T17:21:41.048Z,15.19
2019-04-06T17:24:21.254Z,14.96
2019-04-06T17:27:03.686Z,14.79
2019-04-06T17:30:06.397Z,14.55
2019-04-06T17:32:50.322Z,14.31
2019-04-06T17:35:39.351Z,13.98
2019-04-06T17:38:21.800Z,13.70
2019-04-06T17:41:04.788Z,13.49
2019-04-06T17:44:00.381Z,13.29
2019-04-06T17:46:52.702Z,13.08
2019-04-06T17:49:57.467Z,12.88
2019-04-06T17:52:46.837Z,12.68
2019-04-06T17:55:24.730Z,12.45
2019-04-06T17:58:07.199Z,12.28
2019-04-06T18:00:51.690Z,12.18
2019-04-06T18:03:47.005Z,12.03
2019-04-06T18:06:39.395Z,11.93
2019-04-06T18:09:35.107Z,11.73
2019-04-06T18:12:17.443Z,11.59
2019-04-06T18:14:48.794Z,11.49
2019-04-06T18:17:19.279Z,11.34
2019-04-06T18:19:49.610Z,11.22
2019-04-06T18:22:20.352Z,11.21
2019-04-06T18:24:51.532Z,11.26
2019-04-06T18:27:21.947Z,11.21
2019-04-06T18:29:52.513Z,11.06
2019-04-06T18:32:36.230Z,10.99
2019-04-06T18:35:07.543Z,11.05
2019-04-06T18:37:45.896Z,11.03
2019-04-06T18:40:41.590Z,10.94
2019-04-06T18:43:13.036Z,10.82
2019-04-06T18:45:43.354Z,10.71
2019-04-06T18:48:13.779Z,10.68
2019-04-06T18:50:44.749Z,10.76
2019-04-06T18:53:15.426Z,10.66
2019-04-06T18:55:46.011Z,10.55
2019-04-06T18:58:16.683Z,10.51
2019-04-06T19:00:47.054Z,10.36
2019-04-06T19:03:17.658Z,10.18
2019-04-06T19:05:49.831Z,9.96
2019-04-06T19:08:19.947Z,9.80
2019-04-06T19:10:50.176Z,9.62
2019-04-06T19:13:20.655Z,9.42
2019-04-06T19:15:50.925Z,9.30
2019-04-06T19:18:21.387Z,9.22
2019-04-06T19:20:52.715Z,9.11
2019-04-06T19:23:23.116Z,9.01
2019-04-06T19:25:53.384Z,8.93
2019-04-06T19:28:24.794Z,8.93
2019-04-06T19:30:55.316Z,9.04
2019-04-06T19:33:26.447Z,9.11
2019-04-06T19:35:58.568Z,9.16
2019-04-06T19:38:28.954Z,9.11
2019-04-06T19:40:59.705Z,9.16
2019-04-06T19:43:31.053Z,9.14
2019-04-06T19:46:01.499Z,9.09
2019-04-06T19:48:33.096Z,8.99
2019-04-06T19:51:03.494Z,8.87
2019-04-06T19:53:33.752Z,8.77
2019-04-06T19:56:04.280Z,8.67
2019-04-06T19:58:35.161Z,8.60
2019-04-06T20:01:05.658Z,8.55
2019-04-06T20:03:39.001Z,8.47
2019-04-06T20:06:08.282Z,8.42
2019-04-06T20:08:39.480Z,8.35
2019-04-06T20:11:11.015Z,8.27
2019-04-06T20:13:41.256Z,8.25
2019-04-06T20:16:12.079Z,8.18
2019-04-06T20:18:43.425Z,8.15
2019-04-06T20:21:14.270Z,8.16
2019-04-06T20:23:44.747Z,8.08
2019-04-06T20:26:14.989Z,8.05
2019-04-06T20:28:45.655Z,8.03
2019-04-06T20:31:16.028Z,7.99
2019-04-06T20:33:51.397Z,7.92
2019-04-06T20:36:18.561Z,7.84
2019-04-06T20:38:49.106Z,7.79
2019-04-06T20:41:19.387Z,7.73
2019-04-06T20:43:49.653Z,7.67
2019-04-06T20:46:20.692Z,7.62
2019-04-06T20:48:51.181Z,7.62
2019-04-06T20:51:21.494Z,7.60
2019-04-06T20:53:52.058Z,7.59
2019-04-06T20:56:22.250Z,7.59
2019-04-06T20:58:52.603Z,7.58
2019-04-06T21:01:23.306Z,7.52
2019-04-06T21:04:00.837Z,7.46
2019-04-06T21:06:25.695Z,7.41
2019-04-06T21:08:56.699Z,7.36
2019-04-06T21:11:29.012Z,7.33
2019-04-06T21:14:00.025Z,7.30
2019-04-06T21:16:30.879Z,7.29
2019-04-06T21:19:01.213Z,7.26
2019-04-06T21:21:31.515Z,7.25
2019-04-06T21:24:01.702Z,7.28
2019-04-06T21:26:32.487Z,7.25
2019-04-06T21:29:03.845Z,7.21
2019-04-06T21:31:34.182Z,7.15
2019-04-06T21:34:12.048Z,7.16
2019-04-06T21:36:36.814Z,7.11
2019-04-06T21:39:08.211Z,7.05
2019-04-06T21:41:38.528Z,7.03
2019-04-06T21:44:08.707Z,7.03
2019-04-06T21:46:40.401Z,6.97
2019-04-06T21:49:11.182Z,6.97
2019-04-06T21:51:41.599Z,7.01
2019-04-06T21:54:11.802Z,6.97
2019-04-06T21:56:42.435Z,6.96
2019-04-06T21:59:15.292Z,6.91
2019-04-06T22:01:45.630Z,6.90
2019-04-06T22:04:23.598Z,6.90
2019-04-06T22:06:48.191Z,6.89
2019-04-06T22:09:19.694Z,6.83
2019-04-06T22:11:51.853Z,6.82
2019-04-06T22:14:22.768Z,6.80
2019-04-06T22:16:52.973Z,6.75
2019-04-06T22:19:23.654Z,6.79
2019-04-06T22:21:54.585Z,6.81
2019-04-06T22:24:25.191Z,6.82
2019-04-06T22:26:56.233Z,6.81
2019-04-06T22:29:27.495Z,6.81
2019-04-06T22:31:58.762Z,6.78
2019-04-06T22:34:36.448Z,6.78
2019-04-06T22:37:01.038Z,6.71
2019-04-06T22:39:31.714Z,6.68
2019-04-06T22:42:02.113Z,6.62
2019-04-06T22:44:33.735Z,6.59
2019-04-06T22:47:05.131Z,6.57
2019-04-06T22:49:35.732Z,6.54
2019-04-06T22:52:06.136Z,6.56
2019-04-06T22:54:37.281Z,6.64
2019-04-06T22:57:08.016Z,6.74
2019-04-06T22:59:39.196Z,6.86
2019-04-06T23:02:09.545Z,6.97
2019-04-06T23:04:51.194Z,7.14
2019-04-06T23:07:23.313Z,7.29
2019-04-06T23:09:54.203Z,7.46
2019-04-06T23:12:24.663Z,7.70
2019-04-06T23:14:55.499Z,7.93
2019-04-06T23:17:26.112Z,7.93
2019-04-06T23:19:56.340Z,8.01
2019-04-06T23:22:27.428Z,8.05
2019-04-06T23:24:58.026Z,8.13
2019-04-06T23:27:28.341Z,8.25
2019-04-06T23:29:58.821Z,8.40
2019-04-06T23:32:29.612Z,8.49
2019-04-06T23:35:01.971Z,8.57
2019-04-06T23:37:33.370Z,8.59
2019-04-06T23:40:06.634Z,8.63
2019-04-06T23:42:37.612Z,8.64
2019-04-06T23:45:08.182Z,8.62
2019-04-06T23:47:38.801Z,8.54
2019-04-06T23:50:08.969Z,8.46
2019-04-06T23:52:39.727Z,8.40
2019-04-06T23:55:10.689Z,8.39
2019-04-06T23:57:41.611Z,8.40
